Orbital elements of FENGYUN 1C DEB
| Launched | 9 May 1999 |
| Flight ended | – |
| Launch site | Taiyuan Space Center, PRC |
| Owner | People's Republic of China |
| NORAD ID | 30529 |
| Date fetched |
Epoch osculation |
Inc. [°] |
Ecc. | RA asc node [hr] |
Arg Peri. [°] |
Mean anom [°] |
Mean motion [rev/day] |
Abs. mag |
| Date fetched |
Epoch osculation |
Inc. [°] |
Ecc. | RA asc node [hr] |
Arg Peri. [°] |
Mean anom [°] |
Mean motion [rev/day] |
Abs. mag |
| 2026 May 10 17:57 | 2026 May 10 05:16:24 | 98.4872 | 0.02288 | 2.6784 | 184.1329 | 175.7937 | 13.72035 | – |
| 2026 May 09 17:57 | 2026 May 03 05:15:05 | 98.4875 | 0.02284 | 2.2648 | 203.0674 | 175.7937 | 13.72035 | – |
| 2026 May 08 17:57 | 2026 May 03 05:15:05 | 98.4875 | 0.02284 | 2.2648 | 203.0674 | 175.7937 | 13.72035 | – |
| 2026 May 07 17:58 | 2026 May 03 05:15:05 | 98.4875 | 0.02284 | 2.2648 | 203.0674 | 175.7937 | 13.72035 | – |
| 2026 May 06 17:57 | 2026 May 03 05:15:05 | 98.4875 | 0.02284 | 2.2648 | 203.0674 | 175.7937 | 13.72035 | – |
| 2026 May 05 17:57 | 2026 May 03 05:15:05 | 98.4875 | 0.02284 | 2.2648 | 203.0674 | 175.7937 | 13.72035 | – |
| 2026 May 04 17:57 | 2026 Apr 28 16:44:11 | 98.4876 | 0.02284 | 1.9976 | 215.2945 | 175.7937 | 13.72035 | – |
| 2026 May 03 17:57 | 2026 Apr 28 16:44:11 | 98.4876 | 0.02284 | 1.9976 | 215.2945 | 175.7937 | 13.72035 | – |
| 2026 May 02 17:57 | 2026 Apr 28 16:44:11 | 98.4876 | 0.02284 | 1.9976 | 215.2945 | 175.7937 | 13.72035 | – |
| 2026 May 01 17:56 | 2026 Apr 28 16:44:11 | 98.4876 | 0.02284 | 1.9976 | 215.2945 | 175.7937 | 13.72035 | – |
| 2026 Apr 30 17:56 | 2026 Apr 28 16:44:11 | 98.4876 | 0.02284 | 1.9976 | 215.2945 | 175.7937 | 13.72035 | – |
| 2026 Apr 29 17:57 | 2026 Apr 23 03:43:03 | 98.4871 | 0.02284 | 1.6701 | 230.3259 | 175.7937 | 13.72035 | – |
| 2026 Apr 28 17:56 | 2026 Apr 23 03:43:03 | 98.4871 | 0.02284 | 1.6701 | 230.3259 | 175.7937 | 13.72035 | – |
| 2026 Apr 27 17:58 | 2026 Apr 23 03:43:03 | 98.4871 | 0.02284 | 1.6701 | 230.3259 | 175.7937 | 13.72035 | – |
| 2026 Apr 26 17:58 | 2026 Apr 23 03:43:03 | 98.4871 | 0.02284 | 1.6701 | 230.3259 | 175.7937 | 13.72035 | – |
| 2026 Apr 25 17:58 | 2026 Apr 23 03:43:03 | 98.4871 | 0.02284 | 1.6701 | 230.3259 | 175.7937 | 13.72035 | – |
| 2026 Apr 24 17:59 | 2026 Apr 23 03:43:03 | 98.4871 | 0.02284 | 1.6701 | 230.3259 | 175.7937 | 13.72035 | – |
| 2026 Apr 23 17:57 | 2026 Apr 19 05:12:13 | 98.4867 | 0.02289 | 1.4374 | 240.9793 | 175.7937 | 13.72035 | – |
| 2026 Apr 22 17:57 | 2026 Apr 19 05:12:13 | 98.4867 | 0.02289 | 1.4374 | 240.9793 | 175.7937 | 13.72035 | – |
| 2026 Apr 21 17:57 | 2026 Apr 19 05:12:13 | 98.4867 | 0.02289 | 1.4374 | 240.9793 | 175.7937 | 13.72035 | – |
| 2026 Apr 20 17:57 | 2026 Apr 19 05:12:13 | 98.4867 | 0.02289 | 1.4374 | 240.9793 | 175.7937 | 13.72035 | – |
| 2026 Apr 19 17:58 | 2026 Apr 19 05:12:13 | 98.4867 | 0.02289 | 1.4374 | 240.9793 | 175.7937 | 13.72035 | – |
| 2026 Apr 18 17:56 | 2026 Apr 11 04:40:31 | 98.4870 | 0.02291 | 0.9634 | 262.6319 | 175.7937 | 13.72035 | – |
| 2026 Apr 16 17:57 | 2026 Apr 11 04:40:31 | 98.4870 | 0.02291 | 0.9634 | 262.6319 | 175.7937 | 13.72035 | – |
| 2026 Apr 14 17:57 | 2026 Apr 11 04:40:31 | 98.4870 | 0.02291 | 0.9634 | 262.6319 | 175.7937 | 13.72035 | – |
| 2026 Apr 13 17:57 | 2026 Apr 11 04:40:31 | 98.4870 | 0.02291 | 0.9634 | 262.6319 | 175.7937 | 13.72035 | – |